Time;durP1;ratioP1;P1;durP2;ratioP2;P2;SDS_P1;SDS_P2;PMS_P1;PMS_P2;Temp;Humidity;BMP_temperature;BMP_pressure;BME280_temperature;BME280_humidity;BME280_pressure;Samples;Min_cycle;Max_cycle;Signal;HPM_P1;HPM_P2
2021/08/05 00:00:33;;;;;;;6.85;5.30;;;;;;;16.21;68.75;100748.34;5133986;27;20047;-79
2021/08/05 00:02:59;;;;;;;8.23;5.28;;;;;;;16.17;69.04;100742.41;5135536;27;20047;-79
2021/08/05 00:05:26;;;;;;;9.38;5.63;;;;;;;16.04;69.15;100741.47;5139511;27;20046;-77
2021/08/05 00:07:52;;;;;;;10.05;5.85;;;;;;;16.02;69.44;100732.84;5123971;27;20043;-78
2021/08/05 00:10:19;;;;;;;7.38;5.88;;;;;;;15.94;69.94;100735.91;5141422;27;20507;-78
2021/08/05 00:12:48;;;;;;;9.13;6.28;;;;;;;15.89;70.03;100722.19;5138206;27;20054;-79
2021/08/05 00:15:18;;;;;;;7.65;6.28;;;;;;;15.74;70.38;100705.50;5137206;27;20044;-79
2021/08/05 00:17:44;;;;;;;9.75;6.60;;;;;;;15.80;70.54;100726.19;5137072;27;20050;-82
2021/08/05 00:20:10;;;;;;;10.75;7.00;;;;;;;15.65;70.85;100720.06;5138868;27;20059;-80
2021/08/05 00:22:36;;;;;;;8.48;6.57;;;;;;;15.67;71.02;100716.41;5140326;27;20065;-79
2021/08/05 00:25:03;;;;;;;8.75;6.85;;;;;;;15.56;71.50;100704.81;5146291;27;20044;-78
2021/08/05 00:27:30;;;;;;;8.90;6.60;;;;;;;15.48;71.95;100721.88;5153339;28;20207;-78
2021/08/05 00:29:57;;;;;;;8.60;6.47;;;;;;;15.49;71.58;100696.41;5156974;27;20043;-79
2021/08/05 00:32:23;;;;;;;7.57;5.53;;;;;;;15.51;71.67;100700.69;5157464;27;20038;-78
2021/08/05 00:34:50;;;;;;;10.27;6.85;;;;;;;15.53;71.76;100700.56;5158893;27;20031;-79
2021/08/05 00:37:16;;;;;;;9.32;5.93;;;;;;;15.44;72.40;100704.59;5157975;27;20050;-78
2021/08/05 00:39:44;;;;;;;11.63;6.72;;;;;;;15.35;72.44;100679.66;5149884;27;20047;-79
2021/08/05 00:42:10;;;;;;;8.90;6.45;;;;;;;15.38;72.26;100678.66;5148309;27;20043;-79
2021/08/05 00:44:39;;;;;;;10.02;6.53;;;;;;;15.46;71.80;100667.69;5138403;28;20047;-79
2021/08/05 00:47:05;;;;;;;9.35;6.95;;;;;;;15.44;72.52;100690.59;5135811;27;20584;-80
2021/08/05 00:49:31;;;;;;;9.80;6.70;;;;;;;15.53;72.28;100696.16;5135104;27;20051;-80
2021/08/05 00:51:58;;;;;;;11.73;6.80;;;;;;;15.51;72.47;100686.66;5134550;27;20051;-80
2021/08/05 00:54:24;;;;;;;10.95;7.50;;;;;;;15.52;72.92;100685.72;5134878;27;20046;-82
2021/08/05 00:56:51;;;;;;;9.15;6.53;;;;;;;15.52;72.64;100683.94;5134769;27;20043;-83
2021/08/05 00:59:17;;;;;;;9.80;6.72;;;;;;;15.53;72.76;100680.38;5135179;27;20047;-80
2021/08/05 01:01:50;;;;;;;10.63;7.78;;;;;;;15.24;73.50;100654.94;5135138;27;20452;-80
2021/08/05 01:04:19;;;;;;;12.77;7.60;;;;;;;15.17;73.53;100651.81;5117290;28;20054;-82
2021/08/05 01:07:10;;;;;;;10.88;7.28;;;;;;;15.27;73.81;100665.28;5134942;27;20058;-83
2021/08/05 01:10:05;;;;;;;8.85;7.18;;;;;;;15.32;73.97;100673.75;5135144;27;20043;-80
2021/08/05 01:12:34;;;;;;;;;;;;;;;15.08;75.01;100661.09;5134412;27;20056;-81
2021/08/05 01:15:05;;;;;;;10.20;7.20;;;;;;;15.10;74.72;100661.00;5134685;27;19919;-82
2021/08/05 01:17:36;;;;;;;9.70;7.10;;;;;;;15.11;74.95;100650.41;5134386;28;20049;-81
2021/08/05 01:20:04;;;;;;;11.13;7.63;;;;;;;15.05;75.20;100650.75;5133997;27;20048;-79
2021/08/05 01:22:43;;;;;;;12.57;8.00;;;;;;;14.96;75.74;100644.22;5134318;27;20047;-80
2021/08/05 01:25:19;;;;;;;10.10;7.40;;;;;;;14.84;76.25;100629.16;5138550;27;20047;-80
2021/08/05 01:27:46;;;;;;;14.00;8.48;;;;;;;14.84;75.74;100618.66;5138837;27;20043;-81
2021/08/05 01:30:12;;;;;;;13.20;8.50;;;;;;;14.97;75.74;100637.22;5137640;27;20431;-80
2021/08/05 01:32:39;;;;;;;11.73;8.35;;;;;;;14.97;76.02;100635.41;5137221;27;20043;-80
2021/08/05 01:35:07;;;;;;;13.68;8.70;;;;;;;14.94;76.42;100627.72;5137955;27;20440;-79
2021/08/05 01:37:37;;;;;;;11.15;7.82;;;;;;;14.92;76.58;100621.69;5136371;27;20046;-80
2021/08/05 01:40:06;;;;;;;11.55;8.63;;;;;;;14.88;76.60;100621.03;5135562;27;20047;-80
2021/08/05 01:42:32;;;;;;;13.27;8.07;;;;;;;14.97;76.26;100624.06;5138340;27;20050;-82
2021/08/05 01:44:58;;;;;;;13.35;9.05;;;;;;;14.86;76.65;100614.16;5137790;27;20039;-80
2021/08/05 01:47:26;;;;;;;14.38;8.93;;;;;;;14.78;76.70;100609.38;5136890;27;20043;-82
2021/08/05 01:49:52;;;;;;;11.90;8.73;;;;;;;14.88;76.71;100636.78;5135987;27;20050;-81
2021/08/05 01:52:20;;;;;;;13.10;9.32;;;;;;;14.82;77.14;100631.06;5137318;27;20074;-79
2021/08/05 01:54:46;;;;;;;13.43;9.77;;;;;;;14.79;77.40;100625.97;5136904;27;20068;-80
2021/08/05 01:57:13;;;;;;;12.38;10.10;;;;;;;14.69;77.72;100615.13;5136996;27;20054;-80
2021/08/05 01:59:40;;;;;;;13.50;10.07;;;;;;;14.51;78.04;100604.72;5136251;27;20043;-80
2021/08/05 02:02:07;;;;;;;13.02;10.02;;;;;;;14.56;78.38;100626.31;5136782;27;20103;-79
2021/08/05 02:04:55;;;;;;;15.73;10.00;;;;;;;14.55;78.31;100619.34;5135623;27;20043;-81
2021/08/05 02:07:30;;;;;;;11.85;9.32;;;;;;;14.24;78.24;100568.56;5136117;27;20376;-80
2021/08/05 02:10:03;;;;;;;16.55;9.88;;;;;;;14.52;78.60;100619.50;5135448;27;20054;-80
2021/08/05 02:12:39;;;;;;;13.75;10.35;;;;;;;14.46;78.79;100616.41;5137327;27;20047;-79
2021/08/05 02:15:06;;;;;;;14.13;10.35;;;;;;;14.14;78.84;100567.34;5136712;27;20483;-80
2021/08/05 02:17:35;;;;;;;12.93;10.60;;;;;;;14.33;78.39;100590.81;5136576;27;20039;-80
2021/08/05 02:20:05;;;;;;;16.75;10.55;;;;;;;14.30;78.65;100590.16;5134823;27;20039;-80
2021/08/05 02:22:32;;;;;;;11.93;9.68;;;;;;;14.39;78.70;100606.25;5136451;27;20059;-79
2021/08/05 02:24:59;;;;;;;12.90;10.18;;;;;;;14.32;78.84;100606.63;5136513;27;20494;-80
2021/08/05 02:27:27;;;;;;;17.45;10.95;;;;;;;14.35;79.14;100620.44;5136137;27;20403;-79
2021/08/05 02:29:55;;;;;;;16.45;11.57;;;;;;;14.28;79.37;100624.38;5133702;27;20484;-79
2021/08/05 02:32:22;;;;;;;14.57;11.43;;;;;;;14.09;79.63;100588.59;5134641;27;20050;-80
2021/08/05 02:34:48;;;;;;;15.38;10.07;;;;;;;14.04;79.39;100574.06;5125393;27;20047;-79
2021/08/05 02:37:14;;;;;;;15.02;10.65;;;;;;;14.27;79.53;100604.28;5126278;27;20036;-80
2021/08/05 02:39:40;;;;;;;14.10;11.25;;;;;;;14.18;79.73;100596.91;5127363;27;20043;-80
2021/08/05 02:42:08;;;;;;;15.85;9.95;;;;;;;14.25;79.75;100606.16;5135440;27;20051;-79
2021/08/05 02:44:36;;;;;;;19.95;10.88;;;;;;;14.20;79.77;100593.28;5136753;27;20043;-79
2021/08/05 02:47:02;;;;;;;13.57;10.13;;;;;;;14.20;79.59;100576.69;5147503;27;20043;-79
2021/08/05 02:49:31;;;;;;;13.68;9.70;;;;;;;14.34;79.53;100589.91;5150651;27;20043;-78
2021/08/05 02:51:57;;;;;;;17.30;11.73;;;;;;;14.21;80.21;100587.09;5156476;27;20047;-78
2021/08/05 02:54:24;;;;;;;13.20;11.00;;;;;;;13.88;80.28;100534.69;5151206;27;20050;-79
2021/08/05 02:56:50;;;;;;;12.63;9.57;;;;;;;14.20;80.26;100580.16;5155577;27;20027;-79
2021/08/05 02:59:17;;;;;;;13.48;10.95;;;;;;;14.22;80.08;100574.81;5156719;27;20046;-78
2021/08/05 03:01:44;;;;;;;14.70;10.63;;;;;;;14.24;79.91;100568.56;5135913;27;20047;-80
2021/08/05 03:04:10;;;;;;;15.32;10.20;;;;;;;14.23;79.90;100569.50;5135946;27;20054;-79
2021/08/05 03:06:37;;;;;;;13.50;9.77;;;;;;;14.18;79.81;100561.00;5136938;27;20103;-80
2021/08/05 03:09:02;;;;;;;15.18;10.68;;;;;;;14.13;80.25;100563.03;5135717;27;20091;-79
2021/08/05 03:11:28;;;;;;;14.25;9.73;;;;;;;14.23;79.76;100561.63;5135398;27;20043;-79
2021/08/05 03:13:55;;;;;;;13.10;10.90;;;;;;;13.88;79.95;100506.66;5135615;27;20422;-79
2021/08/05 03:16:21;;;;;;;16.13;11.18;;;;;;;14.16;80.28;100554.16;5134951;27;20092;-80
2021/08/05 03:18:48;;;;;;;14.30;10.32;;;;;;;14.02;80.23;100520.78;5134751;27;20035;-79
2021/08/05 03:21:17;;;;;;;14.68;10.60;;;;;;;14.10;80.21;100531.72;5134963;27;20055;-78
2021/08/05 03:23:43;;;;;;;13.35;10.23;;;;;;;13.93;80.44;100507.25;5135410;27;20043;-79
2021/08/05 03:26:09;;;;;;;15.38;11.13;;;;;;;14.15;80.15;100529.69;5134790;27;20487;-78
2021/08/05 03:28:36;;;;;;;14.80;10.30;;;;;;;14.00;80.29;100522.66;5134524;27;20066;-78
2021/08/05 03:31:01;;;;;;;18.67;12.10;;;;;;;14.16;80.30;100534.00;5134639;27;20043;-80
2021/08/05 03:33:28;;;;;;;15.02;10.68;;;;;;;14.19;80.40;100543.47;5140354;27;20426;-76
2021/08/05 03:35:54;;;;;;;13.75;10.48;;;;;;;14.21;79.85;100523.25;5142993;27;20047;-76
2021/08/05 03:38:20;;;;;;;15.95;10.55;;;;;;;14.29;79.84;100536.78;5140518;27;20098;-77
2021/08/05 03:40:46;;;;;;;12.63;11.20;;;;;;;14.17;80.58;100538.34;5138945;27;20053;-78
2021/08/05 03:43:12;;;;;;;15.82;11.55;;;;;;;14.19;80.37;100536.44;5130362;27;20503;-79
2021/08/05 03:45:38;;;;;;;17.17;10.68;;;;;;;14.30;79.55;100521.88;5135125;27;20047;-79
2021/08/05 03:48:04;;;;;;;16.52;11.98;;;;;;;14.35;79.46;100527.72;5135406;27;20129;-80
2021/08/05 03:50:30;;;;;;;16.85;10.77;;;;;;;14.22;79.82;100527.53;5135471;27;20054;-77
2021/08/05 03:52:56;;;;;;;16.60;12.32;;;;;;;13.94;80.53;100508.13;5135239;27;20047;-79
2021/08/05 03:55:23;;;;;;;16.08;11.02;;;;;;;14.04;80.50;100522.41;5133131;27;20043;-79
2021/08/05 03:57:50;;;;;;;15.27;11.15;;;;;;;14.06;80.12;100523.19;5134586;27;20449;-80
2021/08/05 04:00:17;;;;;;;15.23;11.02;;;;;;;13.98;80.33;100487.78;5133241;27;20084;-79
2021/08/05 04:02:44;;;;;;;14.45;10.98;;;;;;;14.11;79.87;100503.69;5122306;27;20055;-79
2021/08/05 04:05:11;;;;;;;15.18;12.15;;;;;;;14.07;80.12;100495.13;5114392;28;20047;-82
2021/08/05 04:07:39;;;;;;;14.95;12.05;;;;;;;13.90;80.65;100507.44;5133363;27;20050;-78
2021/08/05 04:10:06;;;;;;;14.05;10.93;;;;;;;13.97;80.67;100501.84;5134632;27;20047;-82
2021/08/05 04:12:32;;;;;;;15.85;11.48;;;;;;;13.81;80.68;100483.50;5133256;27;20054;-80
2021/08/05 04:14:58;;;;;;;15.05;11.30;;;;;;;13.79;81.23;100487.97;5133532;27;20043;-78
2021/08/05 04:17:24;;;;;;;12.38;10.35;;;;;;;14.02;80.45;100486.69;5134343;27;20070;-79
2021/08/05 04:19:51;;;;;;;13.90;9.77;;;;;;;14.07;79.93;100468.88;5134539;27;20080;-79
2021/08/05 04:22:17;;;;;;;17.25;11.40;;;;;;;14.09;79.90;100470.50;5132971;27;20489;-79
2021/08/05 04:24:43;;;;;;;20.27;11.65;;;;;;;14.07;80.35;100480.25;5134025;27;20043;-78
2021/08/05 04:27:11;;;;;;;13.65;10.55;;;;;;;13.85;80.52;100440.41;5125756;27;20063;-79
2021/08/05 04:29:38;;;;;;;15.45;11.00;;;;;;;14.02;80.50;100455.19;5126790;28;20479;-78
2021/08/05 04:32:04;;;;;;;16.13;9.88;;;;;;;14.08;80.63;100463.53;5134467;27;20412;-78
2021/08/05 04:34:30;;;;;;;14.55;11.18;;;;;;;14.20;79.78;100453.31;5134458;27;20035;-79
2021/08/05 04:36:56;;;;;;;14.70;10.45;;;;;;;14.19;79.75;100441.09;5137781;28;20053;-77
2021/08/05 04:39:22;;;;;;;13.57;9.63;;;;;;;14.14;79.79;100427.41;5135682;27;20067;-77
2021/08/05 04:41:50;;;;;;;14.05;10.07;;;;;;;14.15;79.99;100437.81;5116379;28;20062;-77
2021/08/05 04:44:16;;;;;;;15.20;9.93;;;;;;;14.11;80.08;100424.94;5114995;28;20047;-79
2021/08/05 04:46:42;;;;;;;13.43;10.40;;;;;;;14.07;80.13;100417.25;5128593;28;20039;-80
2021/08/05 04:49:08;;;;;;;12.60;9.73;;;;;;;14.15;80.01;100429.09;5135108;28;20047;-78
2021/08/05 04:51:34;;;;;;;14.45;10.80;;;;;;;14.17;79.91;100432.47;5134641;27;20073;-77
2021/08/05 04:54:03;;;;;;;13.65;9.68;;;;;;;14.18;80.17;100447.28;5135030;27;20066;-80
2021/08/05 04:56:33;;;;;;;12.60;10.68;;;;;;;14.11;80.38;100431.06;5124032;28;20079;-78
2021/08/05 04:59:00;;;;;;;17.15;11.15;;;;;;;14.13;80.37;100433.59;5118091;28;20113;-78
2021/08/05 05:01:27;;;;;;;12.10;9.27;;;;;;;13.90;80.24;100378.00;5128232;27;20055;-78
2021/08/05 05:03:54;;;;;;;13.95;9.93;;;;;;;14.20;80.26;100413.94;5131934;27;20047;-79
2021/08/05 05:06:22;;;;;;;15.55;10.35;;;;;;;14.02;80.43;100397.44;5145266;27;20107;-78
2021/08/05 05:08:49;;;;;;;14.02;9.93;;;;;;;14.12;80.79;100422.22;5140849;27;20044;-79
2021/08/05 05:11:15;;;;;;;14.90;10.40;;;;;;;13.99;80.78;100395.00;5139770;27;20092;-78
2021/08/05 05:13:41;;;;;;;13.75;10.02;;;;;;;14.28;80.11;100421.34;5139548;27;20148;-79
2021/08/05 05:16:07;;;;;;;14.35;10.77;;;;;;;14.25;80.11;100407.44;5138214;27;20091;-78
2021/08/05 05:18:33;;;;;;;14.95;10.98;;;;;;;14.18;80.14;100381.66;5139363;27;20121;-79
2021/08/05 05:21:00;;;;;;;16.00;10.80;;;;;;;14.16;80.86;100408.00;5140552;27;20031;-79
2021/08/05 05:23:26;;;;;;;18.08;11.30;;;;;;;14.31;80.38;100406.25;5160748;27;20057;-78
2021/08/05 05:25:52;;;;;;;18.10;11.10;;;;;;;14.28;79.88;100379.34;5156769;27;20043;-77
2021/08/05 05:28:18;;;;;;;14.95;11.45;;;;;;;14.35;80.22;100397.25;5150507;27;20075;-78
2021/08/05 05:30:44;;;;;;;17.27;11.38;;;;;;;14.34;79.79;100379.84;5136867;27;20072;-79
2021/08/05 05:33:10;;;;;;;15.60;11.50;;;;;;;14.27;79.78;100365.38;5133761;27;20406;-79
2021/08/05 05:35:37;;;;;;;15.73;11.85;;;;;;;14.50;79.78;100387.66;5137293;27;20055;-78
2021/08/05 05:38:04;;;;;;;19.65;12.10;;;;;;;14.60;79.27;100379.19;5128989;27;20047;-80
2021/08/05 05:40:30;;;;;;;15.88;11.77;;;;;;;14.46;79.20;100359.03;5122674;27;20100;-78
2021/08/05 05:42:57;;;;;;;13.90;11.18;;;;;;;14.52;79.39;100367.38;5136781;27;20411;-78
2021/08/05 05:45:23;;;;;;;14.15;10.60;;;;;;;14.73;78.81;100367.03;5134371;27;20573;-78
2021/08/05 05:47:50;;;;;;;17.55;11.88;;;;;;;14.72;78.44;100349.59;5136754;27;20092;-78
2021/08/05 05:50:18;;;;;;;13.82;11.43;;;;;;;14.84;78.46;100366.38;5135850;27;20051;-79
2021/08/05 05:52:44;;;;;;;13.95;11.68;;;;;;;14.85;78.50;100368.91;5136657;27;20039;-78
2021/08/05 05:55:11;;;;;;;16.45;11.43;;;;;;;14.87;78.43;100356.53;5125742;27;20048;-82
2021/08/05 05:57:39;;;;;;;14.10;11.35;;;;;;;14.80;78.26;100343.88;5136138;27;20066;-78
2021/08/05 06:00:06;;;;;;;15.50;12.50;;;;;;;14.86;78.09;100359.25;5136841;27;20438;-79
2021/08/05 06:02:33;;;;;;;14.88;10.82;;;;;;;15.07;78.16;100364.13;5126150;27;20488;-82
2021/08/05 06:05:00;;;;;;;15.52;11.25;;;;;;;15.24;77.23;100356.00;5135215;27;20076;-82
2021/08/05 06:07:27;;;;;;;14.18;11.15;;;;;;;15.24;77.27;100355.19;5138623;27;20054;-77
2021/08/05 06:09:54;;;;;;;15.48;12.18;;;;;;;15.31;77.32;100351.22;5141705;27;20054;-78
2021/08/05 06:12:21;;;;;;;17.70;13.40;;;;;;;15.32;76.69;100352.91;5138359;27;20046;-79
2021/08/05 06:14:48;;;;;;;19.25;13.48;;;;;;;15.37;76.70;100351.66;5137358;27;20090;-79
2021/08/05 06:17:14;;;;;;;17.25;13.48;;;;;;;15.24;76.51;100328.91;5136452;27;20059;-79
2021/08/05 06:19:39;;;;;;;22.17;13.68;;;;;;;15.11;76.95;100326.19;5135786;27;20110;-78
2021/08/05 06:22:10;;;;;;;19.35;14.20;;;;;;;15.44;76.55;100336.34;5136294;27;20047;-80
2021/08/05 06:24:37;;;;;;;17.08;13.63;;;;;;;15.57;76.20;100336.38;5134266;27;20043;-80
2021/08/05 06:27:03;;;;;;;18.98;14.40;;;;;;;15.47;76.00;100327.41;5137558;27;20043;-80
2021/08/05 06:29:32;;;;;;;17.65;13.35;;;;;;;15.51;75.91;100313.09;5135614;27;20043;-78
2021/08/05 06:31:57;;;;;;;20.85;14.30;;;;;;;15.64;75.55;100328.94;5136242;27;20123;-79
2021/08/05 06:34:23;;;;;;;18.92;13.73;;;;;;;15.63;76.10;100332.53;5131539;27;20047;-79
2021/08/05 06:36:52;;;;;;;19.73;14.73;;;;;;;15.83;75.39;100312.81;5136427;27;20054;-79
2021/08/05 06:39:18;;;;;;;20.40;14.32;;;;;;;16.03;74.52;100300.09;5136730;27;20051;-79
2021/08/05 06:41:44;;;;;;;17.58;13.25;;;;;;;16.32;73.38;100293.69;5134898;27;20491;-79
2021/08/05 06:44:11;;;;;;;17.27;13.60;;;;;;;16.48;73.35;100290.00;5134665;27;20043;-79
2021/08/05 06:46:39;;;;;;;15.80;12.63;;;;;;;16.79;72.54;100293.94;5136076;27;20152;-79
2021/08/05 06:49:05;;;;;;;17.15;12.98;;;;;;;17.04;71.72;100294.03;5141829;27;20043;-78
2021/08/05 06:51:31;;;;;;;17.73;14.00;;;;;;;17.26;71.02;100293.34;5149359;27;20122;-82
2021/08/05 06:53:58;;;;;;;14.95;12.27;;;;;;;17.29;70.19;100283.38;5135641;27;20059;-79
2021/08/05 06:56:25;;;;;;;19.63;12.98;;;;;;;17.04;71.58;100288.75;5136203;27;20051;-77
2021/08/05 06:58:51;;;;;;;14.75;10.27;;;;;;;16.68;71.69;100264.88;5128465;27;20088;-81
2021/08/05 07:01:17;;;;;;;12.88;9.73;;;;;;;16.90;71.95;100279.19;5125450;27;20057;-78
2021/08/05 07:03:43;;;;;;;15.75;10.88;;;;;;;16.85;71.62;100255.78;5143657;27;20115;-78
2021/08/05 07:06:10;;;;;;;12.27;9.43;;;;;;;17.10;71.18;100270.72;5145919;27;20487;-80
2021/08/05 07:08:36;;;;;;;15.27;10.27;;;;;;;17.18;70.77;100261.41;5144901;27;20039;-78
2021/08/05 07:11:02;;;;;;;11.82;8.98;;;;;;;17.20;70.66;100249.78;5129886;27;20051;-78
2021/08/05 07:13:29;;;;;;;13.50;10.50;;;;;;;17.27;70.73;100251.00;5140803;27;20071;-78
2021/08/05 07:15:55;;;;;;;13.73;9.63;;;;;;;17.17;71.03;100251.78;5151004;27;20137;-77
2021/08/05 07:18:21;;;;;;;13.70;9.75;;;;;;;17.20;70.35;100218.13;5147340;27;20083;-78
2021/08/05 07:20:48;;;;;;;11.45;9.18;;;;;;;17.54;69.75;100244.66;5134689;27;20058;-77
2021/08/05 07:23:14;;;;;;;11.85;8.32;;;;;;;17.73;70.22;100241.44;5136348;27;20047;-78
2021/08/05 07:25:40;;;;;;;11.98;8.65;;;;;;;17.65;70.42;100230.66;5135829;27;20074;-79
2021/08/05 07:28:07;;;;;;;13.02;8.70;;;;;;;17.69;70.58;100229.44;5134917;27;20051;-78
2021/08/05 07:30:33;;;;;;;14.50;9.10;;;;;;;17.58;70.48;100227.63;5115264;28;20109;-83
2021/08/05 07:33:00;;;;;;;11.75;8.98;;;;;;;17.46;69.87;100199.50;5134991;27;20071;-82
2021/08/05 07:35:26;;;;;;;8.68;7.78;;;;;;;17.88;69.46;100212.19;5136490;27;20041;-80
2021/08/05 07:37:53;;;;;;;12.40;8.23;;;;;;;17.97;68.58;100213.31;5136489;27;20558;-81
2021/08/05 07:40:21;;;;;;;12.43;8.13;;;;;;;17.84;68.60;100195.75;5136056;27;20039;-80
2021/08/05 07:42:48;;;;;;;11.05;8.38;;;;;;;17.91;68.72;100218.09;5130097;27;20042;-83
2021/08/05 07:45:16;;;;;;;11.82;7.65;;;;;;;17.95;68.03;100218.72;5135953;27;20043;-82
2021/08/05 07:47:42;;;;;;;8.27;7.47;;;;;;;18.33;67.43;100219.34;5143768;27;20039;-80
2021/08/05 07:50:10;;;;;;;10.55;7.70;;;;;;;18.24;67.21;100216.44;5152293;27;20091;-78
2021/08/05 07:52:38;;;;;;;9.48;8.30;;;;;;;17.90;67.97;100202.38;5139418;27;20051;-78
2021/08/05 07:55:06;;;;;;;12.05;8.60;;;;;;;17.89;68.00;100213.88;5147210;27;20043;-78
2021/08/05 07:57:33;;;;;;;10.68;7.85;;;;;;;17.98;67.39;100191.22;5153615;27;20043;-79
2021/08/05 08:00:00;;;;;;;9.27;7.80;;;;;;;18.30;66.85;100211.69;5135953;27;20047;-78
2021/08/05 08:02:28;;;;;;;12.10;8.77;;;;;;;18.46;66.06;100209.50;5118134;28;20059;-81
2021/08/05 08:04:54;;;;;;;8.68;7.78;;;;;;;18.24;66.84;100197.97;5133468;27;20050;-78
2021/08/05 08:07:20;;;;;;;10.57;8.38;;;;;;;18.64;66.15;100204.53;5130334;27;20168;-81
2021/08/05 08:09:46;;;;;;;8.32;7.22;;;;;;;18.51;66.27;100203.84;5131933;27;20047;-80
2021/08/05 08:12:12;;;;;;;11.25;7.70;;;;;;;18.51;66.31;100195.91;5134821;27;20047;-79
2021/08/05 08:14:38;;;;;;;11.05;8.15;;;;;;;18.50;66.02;100188.94;5134518;27;20054;-78
2021/08/05 08:17:04;;;;;;;9.63;7.30;;;;;;;18.30;66.71;100172.03;5133949;27;20556;-78
2021/08/05 08:19:30;;;;;;;10.38;7.00;;;;;;;18.09;67.75;100183.34;5133003;27;20047;-80
2021/08/05 08:21:57;;;;;;;10.80;6.95;;;;;;;17.81;68.58;100176.66;5133170;27;20055;-83
2021/08/05 08:24:23;;;;;;;7.60;6.72;;;;;;;17.81;68.76;100174.88;5135023;27;20510;-80
2021/08/05 08:26:49;;;;;;;11.63;7.10;;;;;;;17.77;69.21;100173.41;5135100;27;20181;-80
2021/08/05 08:29:16;;;;;;;8.55;6.35;;;;;;;17.77;69.70;100163.72;5134859;27;20440;-79
2021/08/05 08:31:43;;;;;;;9.00;7.18;;;;;;;17.97;69.05;100177.19;5134224;27;20444;-78
2021/08/05 08:34:09;;;;;;;9.65;6.05;;;;;;;18.32;67.72;100147.19;5128510;27;20482;-83
2021/08/05 08:36:36;;;;;;;8.23;6.13;;;;;;;18.81;65.81;100152.94;5134935;27;20043;-79
2021/08/05 08:39:03;;;;;;;10.40;6.30;;;;;;;18.81;65.11;100150.31;5134266;27;20044;-79
2021/08/05 08:41:31;;;;;;;9.35;6.22;;;;;;;18.71;65.60;100152.00;5133458;27;20061;-79
2021/08/05 08:43:58;;;;;;;7.32;5.70;;;;;;;18.83;65.31;100143.06;5126281;27;20058;-77
2021/08/05 08:46:26;;;;;;;8.10;5.90;;;;;;;18.98;64.67;100140.16;5134515;27;20469;-77
2021/08/05 08:48:57;;;;;;;8.45;5.53;;;;;;;18.86;64.83;100142.00;5134281;27;20112;-78
2021/08/05 08:51:37;;;;;;;12.55;5.80;;;;;;;19.38;63.33;100117.47;5133607;27;20058;-77
2021/08/05 08:54:14;;;;;;;10.98;5.60;;;;;;;19.38;62.68;100128.88;5133336;27;20046;-77
2021/08/05 08:56:44;;;;;;;9.00;5.00;;;;;;;19.89;61.85;100121.94;5134655;27;20048;-77
2021/08/05 08:59:12;;;;;;;6.03;4.70;;;;;;;20.40;60.57;100116.66;5133204;28;20070;-76
2021/08/05 09:01:50;;;;;;;8.75;5.13;;;;;;;20.71;59.69;100108.59;5134033;27;20047;-77
2021/08/05 09:04:20;;;;;;;10.05;5.10;;;;;;;20.28;60.49;100102.69;5134825;28;20050;-77
2021/08/05 09:06:48;;;;;;;8.98;5.00;;;;;;;20.21;61.04;100106.84;5135390;28;20073;-77
2021/08/05 09:09:17;;;;;;;5.88;4.47;;;;;;;19.97;61.40;100103.56;5137474;27;20082;-79
2021/08/05 09:11:43;;;;;;;6.13;4.70;;;;;;;19.83;62.06;100091.53;5137824;27;20082;-80
2021/08/05 09:14:10;;;;;;;8.23;5.05;;;;;;;19.49;62.84;100098.88;5138321;28;20097;-79
2021/08/05 09:16:37;;;;;;;6.18;4.78;;;;;;;19.10;63.70;100078.28;5131407;27;20043;-80
2021/08/05 09:19:11;;;;;;;12.35;5.03;;;;;;;18.86;64.93;100071.44;5145253;27;20039;-79
2021/08/05 09:21:50;;;;;;;9.45;5.45;;;;;;;18.83;65.36;100098.09;5135298;28;20059;-80
2021/08/05 09:24:16;;;;;;;7.32;4.80;;;;;;;18.48;66.15;100074.56;5134392;28;20043;-79
2021/08/05 09:26:47;;;;;;;6.57;5.20;;;;;;;18.34;67.07;100078.34;5141560;27;20054;-79
2021/08/05 09:29:17;;;;;;;8.05;5.10;;;;;;;18.28;67.61;100086.78;5144846;27;20039;-79
2021/08/05 09:32:03;;;;;;;5.82;4.70;;;;;;;18.15;68.02;100068.41;5139608;28;20043;-79
2021/08/05 09:34:36;;;;;;;7.28;4.85;;;;;;;18.07;68.19;100040.81;5140616;27;20047;-79
2021/08/05 09:37:05;;;;;;;5.88;4.97;;;;;;;18.10;68.47;100055.56;5137874;28;20043;-80
2021/08/05 09:39:33;;;;;;;7.47;5.28;;;;;;;18.30;68.17;100061.06;5132253;28;20517;-79
2021/08/05 09:42:03;;;;;;;7.68;4.90;;;;;;;18.13;68.32;100043.94;5133794;28;20483;-80
2021/08/05 09:44:38;;;;;;;6.40;4.90;;;;;;;18.00;68.49;100047.53;5135904;27;20143;-82
2021/08/05 09:47:22;;;;;;;8.27;4.50;;;;;;;18.03;68.78;100038.56;5137320;27;20053;-77
2021/08/05 09:49:49;;;;;;;7.80;5.53;;;;;;;18.00;69.20;100044.09;5139122;27;20425;-78
2021/08/05 09:52:25;;;;;;;6.88;4.97;;;;;;;17.91;70.45;100054.38;5136729;27;20047;-78
2021/08/05 09:54:52;;;;;;;6.97;4.47;;;;;;;17.89;71.95;100040.47;5138167;27;20412;-80
2021/08/05 09:57:36;;;;;;;7.80;4.90;;;;;;;17.81;72.10;100039.38;5138711;27;20050;-84
2021/08/05 10:00:07;;;;;;;6.53;5.13;;;;;;;17.78;73.82;100035.19;5138649;27;20039;-79
2021/08/05 10:02:47;;;;;;;6.72;4.60;;;;;;;17.85;74.04;100040.84;5143130;27;20346;-79
2021/08/05 10:05:15;;;;;;;6.65;4.70;;;;;;;18.11;72.57;100037.94;5141844;27;20039;-82
2021/08/05 10:07:59;;;;;;;8.07;4.55;;;;;;;18.00;71.82;100015.84;5139463;27;20059;-80
2021/08/05 10:10:28;;;;;;;6.20;4.10;;;;;;;18.03;71.16;100028.00;5138279;27;20047;-84
2021/08/05 10:12:59;;;;;;;6.55;5.03;;;;;;;17.82;71.62;100006.75;5138976;27;20122;-79
2021/08/05 10:15:26;;;;;;;5.82;4.20;;;;;;;17.69;71.69;100006.91;5138908;27;20385;-83
2021/08/05 10:17:56;;;;;;;5.93;4.57;;;;;;;17.35;72.18;99960.25;5137896;27;20044;-78
2021/08/05 10:20:23;;;;;;;6.28;4.82;;;;;;;17.66;74.94;100020.31;5137789;27;20570;-81
2021/08/05 10:22:51;;;;;;;9.00;5.45;;;;;;;17.33;75.97;99998.25;5140721;27;20068;-79
2021/08/05 10:25:25;;;;;;;9.45;5.75;;;;;;;17.23;77.98;100025.34;5136484;28;20048;-78
2021/08/05 10:27:53;;;;;;;9.35;5.45;;;;;;;17.20;78.74;100016.81;5136666;28;20043;-77
2021/08/05 10:30:21;;;;;;;6.97;4.95;;;;;;;17.11;78.15;100011.31;5142394;27;20118;-76
2021/08/05 10:32:48;;;;;;;7.70;4.53;;;;;;;17.43;78.68;100009.75;5137939;27;20051;-78
2021/08/05 10:35:16;;;;;;;8.18;4.15;;;;;;;17.56;76.99;99996.47;5139827;27;20055;-78
2021/08/05 10:37:43;;;;;;;5.78;3.85;;;;;;;17.77;75.88;99986.00;5137670;27;20451;-78
2021/08/05 10:40:11;;;;;;;6.78;4.45;;;;;;;17.83;75.72;99953.81;5134505;27;20454;-81
2021/08/05 10:42:41;;;;;;;4.82;3.35;;;;;;;17.93;74.93;99978.53;5136376;27;20131;-81
2021/08/05 10:45:08;;;;;;;5.43;3.58;;;;;;;17.92;74.08;99963.66;5136267;27;20043;-78
2021/08/05 10:47:34;;;;;;;4.65;2.90;;;;;;;18.12;72.12;99934.81;5136238;27;20047;-78
2021/08/05 10:50:07;;;;;;;5.53;2.88;;;;;;;18.64;70.85;99956.06;5135689;27;20055;-80
2021/08/05 10:52:38;;;;;;;7.53;2.75;;;;;;;18.77;68.63;99953.19;5135960;27;20043;-80
2021/08/05 10:55:06;;;;;;;6.18;3.03;;;;;;;19.09;68.82;99954.09;5135867;27;20494;-78
2021/08/05 10:57:32;;;;;;;6.45;3.05;;;;;;;18.61;71.36;99948.38;5135999;27;20126;-78
2021/08/05 11:00:17;;;;;;;6.88;3.25;;;;;;;18.74;71.56;99961.41;5135577;27;20039;-78
2021/08/05 11:02:53;;;;;;;5.85;3.30;;;;;;;18.66;71.69;99954.13;5135711;27;20155;-77
2021/08/05 11:05:22;;;;;;;3.25;2.33;;;;;;;18.92;70.08;99945.81;5134444;27;20043;-78
2021/08/05 11:07:52;;;;;;;5.35;3.15;;;;;;;19.16;68.13;99926.16;5135168;27;20054;-77
2021/08/05 11:10:24;;;;;;;4.90;2.60;;;;;;;19.54;68.09;99921.94;5135046;27;20099;-78
2021/08/05 11:13:21;;;;;;;5.45;2.70;;;;;;;19.64;68.43;99917.53;5135669;27;20051;-78
2021/08/05 11:15:48;;;;;;;5.05;2.70;;;;;;;19.73;68.03;99910.56;5135944;27;20051;-79
2021/08/05 11:18:16;;;;;;;4.07;2.97;;;;;;;19.90;67.45;99913.56;5134813;27;20122;-78
2021/08/05 11:20:55;;;;;;;6.47;3.20;;;;;;;20.02;66.74;99906.28;5135217;27;20043;-79